Time;durP1;ratioP1;P1;durP2;ratioP2;P2;SDS_P1;SDS_P2;PMS_P1;PMS_P2;Temp;Humidity;BMP_temperature;BMP_pressure;BME280_temperature;BME280_humidity;BME280_pressure;Samples;Min_cycle;Max_cycle;Signal;HPM_P1;HPM_P2
2022/07/14 00:00:11;;;;;;;10.05;2.53;;;;;;;;;;6103535;23;20110;-80
2022/07/14 00:02:38;;;;;;;10.00;2.50;;;;;;;;;;6103388;23;20801;-81
2022/07/14 00:05:06;;;;;;;7.00;2.25;;;;;;;;;;6102876;23;20023;-81
2022/07/14 00:07:33;;;;;;;10.68;2.30;;;;;;;;;;6102592;23;20780;-80
2022/07/14 00:10:00;;;;;;;12.30;2.65;;;;;;;;;;6102536;23;20027;-81
2022/07/14 00:12:27;;;;;;;15.00;3.05;;;;;;;;;;6125089;23;20109;-80
2022/07/14 00:14:55;;;;;;;10.25;2.95;;;;;;;;;;6101935;23;20110;-81
2022/07/14 00:17:22;;;;;;;11.65;2.60;;;;;;;;;;6102236;23;20089;-80
2022/07/14 00:19:49;;;;;;;10.88;2.30;;;;;;;;;;6103684;23;20895;-79
2022/07/14 00:22:16;;;;;;;12.95;2.65;;;;;;;;;;6103138;23;20027;-80
2022/07/14 00:24:43;;;;;;;10.95;2.53;;;;;;;;;;6103053;23;20101;-79
2022/07/14 00:27:10;;;;;;;15.38;2.85;;;;;;;;;;6102575;23;20049;-83
2022/07/14 00:29:37;;;;;;;14.73;2.53;;;;;;;;;;6102309;23;20078;-82
2022/07/14 00:32:07;;;;;;;11.33;2.47;;;;;;;;;;6101892;23;20058;-79
2022/07/14 00:34:35;;;;;;;10.82;2.45;;;;;;;;;;6102313;23;20503;-80
2022/07/14 00:37:02;;;;;;;11.40;2.55;;;;;;;;;;6101506;23;20477;-80
2022/07/14 00:39:54;;;;;;;11.88;2.97;;;;;;;;;;6101270;23;20026;-79
2022/07/14 00:42:26;;;;;;;10.50;2.60;;;;;;;;;;6101306;23;20840;-80
2022/07/14 00:44:53;;;;;;;9.25;2.80;;;;;;;;;;6123658;23;20555;-79
2022/07/14 00:47:20;;;;;;;8.15;2.42;;;;;;;;;;6101392;23;20736;-79
2022/07/14 00:49:48;;;;;;;8.02;2.50;;;;;;;;;;6102442;23;20581;-81
2022/07/14 00:52:15;;;;;;;12.95;2.60;;;;;;;;;;6100671;23;20027;-79
2022/07/14 00:54:42;;;;;;;12.57;2.83;;;;;;;;;;6102880;23;20023;-81
2022/07/14 00:57:09;;;;;;;8.98;2.72;;;;;;;;;;6101376;23;20831;-80
2022/07/14 00:59:36;;;;;;;8.40;2.80;;;;;;;;;;6102014;23;20034;-80
2022/07/14 01:02:03;;;;;;;9.93;2.60;;;;;;;;;;6102201;23;20713;-81
2022/07/14 01:04:31;;;;;;;8.15;2.53;;;;;;;;;;6101811;23;20029;-80
2022/07/14 01:06:58;;;;;;;7.68;2.42;;;;;;;;;;6102487;23;20033;-80
2022/07/14 01:09:25;;;;;;;9.98;2.45;;;;;;;;;;6102304;23;20109;-80
2022/07/14 01:11:52;;;;;;;11.43;2.80;;;;;;;;;;6101994;23;20029;-81
2022/07/14 01:14:19;;;;;;;13.85;2.90;;;;;;;;;;6101582;23;20054;-79
2022/07/14 01:16:46;;;;;;;8.50;2.47;;;;;;;;;;6101753;23;20102;-82
2022/07/14 01:19:13;;;;;;;9.65;2.50;;;;;;;;;;6102028;23;20022;-80
2022/07/14 01:21:40;;;;;;;11.57;2.50;;;;;;;;;;6101295;23;20098;-79
2022/07/14 01:24:08;;;;;;;12.73;2.85;;;;;;;;;;6101594;23;20023;-80
2022/07/14 01:26:35;;;;;;;9.85;2.78;;;;;;;;;;6102118;23;20110;-80
2022/07/14 01:29:02;;;;;;;15.55;2.63;;;;;;;;;;6101253;23;20023;-80
2022/07/14 01:31:29;;;;;;;8.88;2.72;;;;;;;;;;6101434;23;20055;-80
2022/07/14 01:33:56;;;;;;;10.80;2.65;;;;;;;;;;6100821;23;20118;-79
2022/07/14 01:36:24;;;;;;;7.70;2.53;;;;;;;;;;6100448;23;20844;-80
2022/07/14 01:38:54;;;;;;;9.52;2.28;;;;;;;;;;6124047;23;20027;-79
2022/07/14 01:41:21;;;;;;;13.52;2.90;;;;;;;;;;6101599;23;20034;-79
2022/07/14 01:43:49;;;;;;;6.03;2.38;;;;;;;;;;6101789;23;20594;-80
2022/07/14 01:46:16;;;;;;;5.45;2.08;;;;;;;;;;6101388;23;20019;-82
2022/07/14 01:48:43;;;;;;;11.18;2.40;;;;;;;;;;6102093;23;20015;-80
2022/07/14 01:51:10;;;;;;;6.40;2.38;;;;;;;;;;6101587;23;20050;-84
2022/07/14 01:53:41;;;;;;;11.07;2.63;;;;;;;;;;6100735;23;20102;-82
2022/07/14 01:56:12;;;;;;;7.38;2.00;;;;;;;;;;6122784;23;20031;-80
2022/07/14 01:58:39;;;;;;;10.15;2.45;;;;;;;;;;6100915;23;20812;-80
2022/07/14 02:03:56;;;;;;;9.32;2.10;;;;;;;;;;6100971;23;20831;-79
2022/07/14 02:06:24;;;;;;;11.60;2.63;;;;;;;;;;6101248;23;20039;-79
2022/07/14 02:08:51;;;;;;;7.53;2.10;;;;;;;;;;6101512;23;20023;-80
2022/07/14 02:14:05;;;;;;;9.23;2.20;;;;;;;;;;6102100;23;20023;-80
2022/07/14 02:16:36;;;;;;;7.60;2.25;;;;;;;;;;6101177;23;20015;-80
2022/07/14 02:19:03;;;;;;;8.75;2.17;;;;;;;;;;6102975;23;20055;-81
2022/07/14 02:21:30;;;;;;;9.55;2.65;;;;;;;;;;6102135;23;20318;-80
2022/07/14 02:24:01;;;;;;;5.78;2.10;;;;;;;;;;6101686;23;20015;-80
2022/07/14 02:26:28;;;;;;;8.63;2.30;;;;;;;;;;6101775;23;21198;-79
2022/07/14 02:28:55;;;;;;;8.93;2.40;;;;;;;;;;6101924;23;21181;-80
2022/07/14 02:31:24;;;;;;;7.20;2.60;;;;;;;;;;6100754;23;20676;-80
2022/07/14 02:33:52;;;;;;;6.53;2.28;;;;;;;;;;6124657;23;20026;-80
2022/07/14 02:36:19;;;;;;;7.88;2.65;;;;;;;;;;6100205;23;20055;-80
2022/07/14 02:38:46;;;;;;;10.40;2.47;;;;;;;;;;6101466;23;20111;-80
2022/07/14 02:41:13;;;;;;;9.90;2.70;;;;;;;;;;6123857;23;20069;-80
2022/07/14 02:43:40;;;;;;;5.90;2.00;;;;;;;;;;6101258;23;20027;-81
2022/07/14 02:46:09;;;;;;;11.32;2.80;;;;;;;;;;6101192;23;20027;-79
2022/07/14 02:48:36;;;;;;;5.78;2.30;;;;;;;;;;6099942;23;20534;-80
2022/07/14 02:51:05;;;;;;;5.28;2.10;;;;;;;;;;6101470;23;20046;-80
2022/07/14 02:53:34;;;;;;;7.20;2.17;;;;;;;;;;6101029;23;20473;-82
2022/07/14 02:56:01;;;;;;;7.30;2.17;;;;;;;;;;6101254;23;20053;-79
2022/07/14 02:58:29;;;;;;;9.10;2.28;;;;;;;;;;6101204;23;20023;-80
2022/07/14 03:00:56;;;;;;;5.28;1.90;;;;;;;;;;6124015;23;20027;-80
2022/07/14 03:03:23;;;;;;;5.25;1.70;;;;;;;;;;6100887;23;20532;-80
2022/07/14 03:05:50;;;;;;;4.53;1.63;;;;;;;;;;6102548;23;20019;-80
2022/07/14 03:08:18;;;;;;;5.25;2.15;;;;;;;;;;6123936;23;20038;-81
2022/07/14 03:10:45;;;;;;;4.63;1.80;;;;;;;;;;6101433;23;20007;-81
2022/07/14 03:13:12;;;;;;;4.55;1.90;;;;;;;;;;6100469;23;20070;-81
2022/07/14 03:15:41;;;;;;;5.93;1.67;;;;;;;;;;6101110;23;20046;-81
2022/07/14 03:18:08;;;;;;;4.47;1.80;;;;;;;;;;6101410;23;20034;-81
2022/07/14 03:20:35;;;;;;;3.90;1.60;;;;;;;;;;6102414;23;20015;-80
2022/07/14 03:23:03;;;;;;;2.60;1.40;;;;;;;;;;6124264;23;20023;-81
2022/07/14 03:25:30;;;;;;;4.18;1.40;;;;;;;;;;6124928;23;20027;-80
2022/07/14 03:27:57;;;;;;;3.55;1.60;;;;;;;;;;6101055;23;20027;-80
2022/07/14 03:30:24;;;;;;;4.32;1.70;;;;;;;;;;6124818;23;20082;-80
2022/07/14 03:32:51;;;;;;;6.75;1.90;;;;;;;;;;6101735;23;20094;-81
2022/07/14 03:35:19;;;;;;;5.60;1.85;;;;;;;;;;6104278;23;20070;-81
2022/07/14 03:37:46;;;;;;;3.00;1.80;;;;;;;;;;6128334;23;20023;-81
2022/07/14 03:40:29;;;;;;;5.75;2.00;;;;;;;;;;6106219;23;20031;-81
2022/07/14 03:42:56;;;;;;;6.50;1.85;;;;;;;;;;6105369;23;20019;-81
2022/07/14 03:45:23;;;;;;;6.65;1.90;;;;;;;;;;6105353;23;20019;-80
2022/07/14 03:47:51;;;;;;;6.78;1.80;;;;;;;;;;6105223;23;20941;-80
2022/07/14 03:50:21;;;;;;;6.07;2.15;;;;;;;;;;6104399;23;20011;-80
2022/07/14 03:52:48;;;;;;;4.45;2.20;;;;;;;;;;6103652;23;20027;-81
2022/07/14 03:55:18;;;;;;;8.38;2.72;;;;;;;;;;6103361;23;20030;-81
2022/07/14 03:57:45;;;;;;;7.55;2.25;;;;;;;;;;6102651;23;20030;-80
2022/07/14 04:00:12;;;;;;;8.63;2.30;;;;;;;;;;6103216;23;20031;-80
2022/07/14 04:02:39;;;;;;;6.13;2.05;;;;;;;;;;6125970;23;20142;-80
2022/07/14 04:05:10;;;;;;;7.28;2.10;;;;;;;;;;6103236;23;20019;-83
2022/07/14 04:07:37;;;;;;;8.00;2.05;;;;;;;;;;6126881;23;20059;-81
2022/07/14 04:10:04;;;;;;;3.33;1.50;;;;;;;;;;6104183;23;20034;-81
2022/07/14 04:12:32;;;;;;;3.10;1.75;;;;;;;;;;6104165;23;20769;-79
2022/07/14 04:15:04;;;;;;;4.60;1.60;;;;;;;;;;6103395;23;20031;-80
2022/07/14 04:17:31;;;;;;;8.35;1.52;;;;;;;;;;6103261;23;20472;-81
2022/07/14 04:19:58;;;;;;;5.80;1.98;;;;;;;;;;6103787;23;20054;-80
2022/07/14 04:22:25;;;;;;;7.70;1.83;;;;;;;;;;6103129;23;20901;-80
2022/07/14 04:25:05;;;;;;;7.85;2.15;;;;;;;;;;6104918;23;20682;-79
2022/07/14 04:27:32;;;;;;;5.70;1.80;;;;;;;;;;6103790;23;20059;-80
2022/07/14 04:29:59;;;;;;;6.72;2.25;;;;;;;;;;6103955;23;20836;-80
2022/07/14 04:32:27;;;;;;;7.05;1.90;;;;;;;;;;6104124;23;20078;-80
2022/07/14 04:34:54;;;;;;;7.68;2.17;;;;;;;;;;6109650;23;20027;-80
2022/07/14 04:37:21;;;;;;;7.35;2.10;;;;;;;;;;6127955;23;20877;-80
2022/07/14 04:39:48;;;;;;;7.18;2.30;;;;;;;;;;6125724;23;20043;-81
2022/07/14 04:42:19;;;;;;;5.43;2.00;;;;;;;;;;6101820;23;20023;-81
2022/07/14 04:44:46;;;;;;;5.80;2.03;;;;;;;;;;6102711;23;20102;-79
2022/07/14 04:47:16;;;;;;;6.47;2.15;;;;;;;;;;6101727;23;20063;-80
2022/07/14 04:52:29;;;;;;;5.88;2.13;;;;;;;;;;6101632;23;20087;-80
2022/07/14 04:54:57;;;;;;;4.47;2.00;;;;;;;;;;6100546;23;20042;-80
2022/07/14 04:57:24;;;;;;;6.35;2.50;;;;;;;;;;6101606;23;20853;-80
2022/07/14 04:59:58;;;;;;;8.38;2.40;;;;;;;;;;6099175;23;20030;-80
2022/07/14 05:02:26;;;;;;;8.07;2.83;;;;;;;;;;6100695;23;20078;-80
2022/07/14 05:04:54;;;;;;;9.35;3.10;;;;;;;;;;6099034;23;20071;-80
2022/07/14 05:07:21;;;;;;;12.05;3.10;;;;;;;;;;6099127;23;20539;-80
2022/07/14 05:09:48;;;;;;;10.23;2.88;;;;;;;;;;6099642;23;20042;-80
2022/07/14 05:12:17;;;;;;;10.27;3.00;;;;;;;;;;6099933;23;20080;-82
2022/07/14 05:14:45;;;;;;;10.32;3.10;;;;;;;;;;6098730;23;20524;-84
2022/07/14 05:17:13;;;;;;;9.07;3.15;;;;;;;;;;6099581;23;20022;-83
2022/07/14 05:19:46;;;;;;;17.60;3.72;;;;;;;;;;6098131;23;20097;-82
2022/07/14 05:22:15;;;;;;;14.80;3.67;;;;;;;;;;6098702;23;20023;-83
2022/07/14 05:24:42;;;;;;;11.75;3.95;;;;;;;;;;6100055;23;20525;-83
2022/07/14 05:27:10;;;;;;;23.48;3.97;;;;;;;;;;6098268;23;20029;-83
2022/07/14 05:29:39;;;;;;;15.85;3.30;;;;;;;;;;6098996;23;20315;-81
2022/07/14 05:32:06;;;;;;;17.80;4.47;;;;;;;;;;6098350;23;20103;-81
2022/07/14 05:34:33;;;;;;;18.27;3.55;;;;;;;;;;6099393;23;20038;-80
2022/07/14 05:37:01;;;;;;;14.70;3.53;;;;;;;;;;6102281;23;20130;-81
2022/07/14 05:39:29;;;;;;;21.80;3.88;;;;;;;;;;6122251;23;20098;-80
2022/07/14 05:41:56;;;;;;;14.52;3.20;;;;;;;;;;6123325;23;20098;-82
2022/07/14 05:44:23;;;;;;;18.88;3.55;;;;;;;;;;6100201;23;20023;-82
2022/07/14 05:46:50;;;;;;;16.67;3.10;;;;;;;;;;6099583;23;20074;-80
2022/07/14 05:49:20;;;;;;;16.88;3.17;;;;;;;;;;6098721;23;20031;-80
2022/07/14 05:51:50;;;;;;;16.38;3.17;;;;;;;;;;6098468;23;20026;-80
2022/07/14 05:54:20;;;;;;;14.07;3.15;;;;;;;;;;6099153;23;20160;-81
2022/07/14 05:56:47;;;;;;;21.23;3.03;;;;;;;;;;6098401;23;20033;-80
2022/07/14 05:59:14;;;;;;;16.55;2.75;;;;;;;;;;6098953;23;20085;-82
2022/07/14 06:02:03;;;;;;;18.75;3.35;;;;;;;;;;6098708;23;20023;-82
2022/07/14 06:04:31;;;;;;;19.80;2.55;;;;;;;;;;6120345;23;20429;-81
2022/07/14 06:06:58;;;;;;;14.55;2.75;;;;;;;;;;6099033;23;20077;-81
2022/07/14 06:09:25;;;;;;;18.10;2.80;;;;;;;;;;6099087;23;20027;-81
2022/07/14 06:11:52;;;;;;;13.00;2.47;;;;;;;;;;6098997;23;20046;-82
2022/07/14 06:14:19;;;;;;;14.93;2.78;;;;;;;;;;6098741;23;20027;-81
2022/07/14 06:16:47;;;;;;;12.95;2.83;;;;;;;;;;6098812;23;20046;-81
2022/07/14 06:19:15;;;;;;;18.10;3.17;;;;;;;;;;6098791;23;20027;-81
2022/07/14 06:21:43;;;;;;;16.67;2.25;;;;;;;;;;6098904;23;20027;-81
2022/07/14 06:24:12;;;;;;;16.80;2.60;;;;;;;;;;6099020;23;20018;-81
2022/07/14 06:26:41;;;;;;;15.90;2.30;;;;;;;;;;6099200;23;20035;-81
2022/07/14 06:29:10;;;;;;;14.80;2.65;;;;;;;;;;6098293;23;20062;-81
2022/07/14 06:31:38;;;;;;;11.48;2.50;;;;;;;;;;6121522;23;20672;-81
2022/07/14 06:34:05;;;;;;;11.73;2.13;;;;;;;;;;6099056;23;20102;-81
2022/07/14 06:36:33;;;;;;;21.70;2.95;;;;;;;;;;6099309;23;20062;-81
2022/07/14 06:39:00;;;;;;;12.05;3.20;;;;;;;;;;6098788;23;20030;-82
2022/07/14 06:41:27;;;;;;;22.05;2.78;;;;;;;;;;6098058;23;20497;-81
2022/07/14 06:43:55;;;;;;;13.13;2.53;;;;;;;;;;6098699;23;20027;-81
2022/07/14 06:46:22;;;;;;;13.45;2.40;;;;;;;;;;6099692;23;20030;-81
2022/07/14 06:48:52;;;;;;;12.18;2.38;;;;;;;;;;6102334;23;20058;-81
2022/07/14 06:51:19;;;;;;;12.25;2.35;;;;;;;;;;6101850;23;20023;-81
2022/07/14 06:53:46;;;;;;;16.15;2.95;;;;;;;;;;6101036;23;20688;-81
2022/07/14 06:56:13;;;;;;;13.52;2.58;;;;;;;;;;6100502;23;20114;-81
2022/07/14 06:58:40;;;;;;;26.75;2.20;;;;;;;;;;6099572;23;20110;-81
2022/07/14 07:01:07;;;;;;;13.40;2.20;;;;;;;;;;6099005;23;20026;-81
2022/07/14 07:03:35;;;;;;;15.30;2.70;;;;;;;;;;6098731;23;20529;-81
2022/07/14 07:08:48;;;;;;;12.65;2.03;;;;;;;;;;6099121;23;20067;-81
2022/07/14 07:11:15;;;;;;;10.98;2.42;;;;;;;;;;6099454;23;20029;-81
2022/07/14 07:13:43;;;;;;;12.23;2.33;;;;;;;;;;6099016;23;20022;-81
2022/07/14 07:16:10;;;;;;;13.43;2.53;;;;;;;;;;6121696;23;20037;-82
2022/07/14 07:18:37;;;;;;;14.95;2.38;;;;;;;;;;6100654;23;20030;-81
2022/07/14 07:21:06;;;;;;;9.27;2.30;;;;;;;;;;6100740;23;20053;-81
2022/07/14 07:23:34;;;;;;;16.38;2.67;;;;;;;;;;6100185;23;20541;-81
2022/07/14 07:26:01;;;;;;;10.27;2.25;;;;;;;;;;6100662;23;20050;-81
2022/07/14 07:28:28;;;;;;;11.00;2.17;;;;;;;;;;6100792;23;20058;-81
2022/07/14 07:30:58;;;;;;;12.13;2.55;;;;;;;;;;6122358;23;20102;-81
2022/07/14 07:33:25;;;;;;;10.50;2.13;;;;;;;;;;6098954;23;20050;-80
2022/07/14 07:35:52;;;;;;;12.00;2.35;;;;;;;;;;6099743;23;20027;-82
2022/07/14 07:38:19;;;;;;;11.38;2.28;;;;;;;;;;6122064;23;20114;-80
2022/07/14 07:40:49;;;;;;;7.75;2.40;;;;;;;;;;6099055;23;20030;-80
2022/07/14 07:43:16;;;;;;;15.65;2.80;;;;;;;;;;6099244;23;20460;-80
2022/07/14 07:45:43;;;;;;;12.02;2.10;;;;;;;;;;6099605;23;20808;-80
2022/07/14 07:48:12;;;;;;;11.30;2.30;;;;;;;;;;6099211;23;20038;-82
2022/07/14 07:50:41;;;;;;;13.10;2.38;;;;;;;;;;6099773;23;20786;-80
2022/07/14 07:53:09;;;;;;;14.65;2.40;;;;;;;;;;6100288;23;20061;-81
2022/07/14 07:55:36;;;;;;;12.52;2.55;;;;;;;;;;6099793;23;20029;-80
2022/07/14 07:58:03;;;;;;;14.25;2.67;;;;;;;;;;6101415;23;20027;-81
2022/07/14 08:00:30;;;;;;;12.43;2.25;;;;;;;;;;6102424;23;20058;-81
2022/07/14 08:02:58;;;;;;;9.88;2.30;;;;;;;;;;6100807;23;20536;-80
2022/07/14 08:05:26;;;;;;;16.90;2.63;;;;;;;;;;6101412;23;20079;-80
2022/07/14 08:08:13;;;;;;;8.13;1.60;;;;;;;;;;6099976;23;20377;-80
2022/07/14 08:10:40;;;;;;;10.75;2.28;;;;;;;;;;6100389;23;20026;-80
2022/07/14 08:13:08;;;;;;;10.82;1.85;;;;;;;;;;6100099;23;20367;-81
2022/07/14 08:15:36;;;;;;;10.63;1.90;;;;;;;;;;6100392;23;20784;-80
2022/07/14 08:18:03;;;;;;;10.73;2.10;;;;;;;;;;6099967;23;20473;-80
2022/07/14 08:20:31;;;;;;;10.60;2.25;;;;;;;;;;6100216;23;20488;-80
2022/07/14 08:22:59;;;;;;;10.30;1.92;;;;;;;;;;6100658;23;20047;-80
2022/07/14 08:25:26;;;;;;;10.65;2.17;;;;;;;;;;6099809;23;20023;-80
2022/07/14 08:27:59;;;;;;;6.97;2.03;;;;;;;;;;6099554;23;20461;-80
2022/07/14 08:30:27;;;;;;;8.10;2.28;;;;;;;;;;6099429;23;20926;-80
2022/07/14 08:32:54;;;;;;;6.95;1.67;;;;;;;;;;6122777;23;20458;-80
2022/07/14 08:35:23;;;;;;;10.15;2.25;;;;;;;;;;6099032;23;20084;-81
2022/07/14 08:37:51;;;;;;;8.45;1.77;;;;;;;;;;6121292;23;20078;-80
2022/07/14 08:40:20;;;;;;;8.65;2.00;;;;;;;;;;6099902;23;20027;-80
2022/07/14 08:42:48;;;;;;;6.00;1.90;;;;;;;;;;6099267;23;20023;-80
2022/07/14 08:45:17;;;;;;;8.85;2.58;;;;;;;;;;6099991;23;20105;-81
2022/07/14 08:47:45;;;;;;;8.60;1.80;;;;;;;;;;6099249;23;20082;-80
2022/07/14 08:50:13;;;;;;;7.68;1.65;;;;;;;;;;6099722;23;20755;-84
2022/07/14 08:52:41;;;;;;;12.50;1.70;;;;;;;;;;6100022;23;20022;-81
2022/07/14 08:55:13;;;;;;;6.90;1.92;;;;;;;;;;6100205;23;20031;-80
2022/07/14 08:57:40;;;;;;;6.68;1.60;;;;;;;;;;6100095;23;20059;-80
2022/07/14 09:00:11;;;;;;;8.18;1.83;;;;;;;;;;6099805;23;20856;-81
2022/07/14 09:02:39;;;;;;;10.45;1.88;;;;;;;;;;6099715;23;20090;-80
2022/07/14 09:05:26;;;;;;;9.88;1.60;;;;;;;;;;6099476;23;20027;-80
2022/07/14 09:07:57;;;;;;;5.35;1.50;;;;;;;;;;6123314;23;20086;-80
2022/07/14 09:10:26;;;;;;;9.48;1.75;;;;;;;;;;6100450;23;20023;-80
2022/07/14 09:13:10;;;;;;;9.32;2.05;;;;;;;;;;6099541;23;20029;-82
2022/07/14 09:15:46;;;;;;;11.82;1.90;;;;;;;;;;6121325;23;20027;-80
2022/07/14 09:18:23;;;;;;;9.80;1.90;;;;;;;;;;6098737;23;20437;-80
2022/07/14 09:20:52;;;;;;;11.00;2.10;;;;;;;;;;6098131;23;20030;-80
2022/07/14 09:23:26;;;;;;;8.02;2.00;;;;;;;;;;6098652;23;20050;-81
2022/07/14 09:26:08;;;;;;;9.35;1.85;;;;;;;;;;6099319;23;20089;-81
2022/07/14 09:28:39;;;;;;;16.53;1.90;;;;;;;;;;6099178;23;20031;-81
2022/07/14 09:31:22;;;;;;;9.80;2.00;;;;;;;;;;6098513;23;20548;-80
2022/07/14 09:33:53;;;;;;;8.30;2.10;;;;;;;;;;6099393;23;20018;-80
2022/07/14 09:36:29;;;;;;;7.88;1.60;;;;;;;;;;6121636;23;20037;-81
2022/07/14 09:38:58;;;;;;;6.57;1.60;;;;;;;;;;6099358;23;20046;-80
2022/07/14 09:41:26;;;;;;;5.45;1.40;;;;;;;;;;6099334;23;20102;-80
2022/07/14 09:44:05;;;;;;;6.05;1.50;;;;;;;;;;6099625;23;20038;-81
2022/07/14 09:46:43;;;;;;;6.43;1.30;;;;;;;;;;6098461;23;20023;-81
2022/07/14 09:49:11;;;;;;;8.82;2.05;;;;;;;;;;6099445;23;20038;-80
2022/07/14 09:51:57;;;;;;;9.23;1.58;;;;;;;;;;6099891;23;20027;-82
2022/07/14 09:54:46;;;;;;;7.53;1.63;;;;;;;;;;6099652;23;20053;-80
2022/07/14 09:57:13;;;;;;;6.57;1.48;;;;;;;;;;6099745;23;20023;-79
2022/07/14 09:59:46;;;;;;;12.88;1.73;;;;;;;;;;6099333;23;20033;-80
2022/07/14 10:02:13;;;;;;;;;;;;;;;;;;6100169;23;20018;-80
2022/07/14 10:04:40;;;;;;;5.68;1.33;;;;;;;;;;6097399;23;44001;-81
2022/07/14 10:07:08;;;;;;;7.00;1.65;;;;;;;;;;6099267;23;20027;-80
2022/07/14 10:09:37;;;;;;;4.85;1.38;;;;;;;;;;6099008;23;20031;-80
2022/07/14 10:12:06;;;;;;;6.43;1.67;;;;;;;;;;6099019;23;20102;-80
2022/07/14 10:14:33;;;;;;;6.47;1.25;;;;;;;;;;6099471;23;20027;-80
2022/07/14 10:17:00;;;;;;;5.30;1.10;;;;;;;;;;6098461;23;20065;-80
2022/07/14 10:19:28;;;;;;;4.60;1.23;;;;;;;;;;6098530;23;20035;-81
2022/07/14 10:21:56;;;;;;;7.25;1.30;;;;;;;;;;6099321;23;20107;-80
2022/07/14 10:24:26;;;;;;;6.70;1.30;;;;;;;;;;6099263;23;20098;-80
2022/07/14 10:26:53;;;;;;;3.17;0.98;;;;;;;;;;6098843;23;20100;-80
2022/07/14 10:29:21;;;;;;;5.13;1.30;;;;;;;;;;6098669;23;20389;-80
2022/07/14 10:32:06;;;;;;;4.03;0.98;;;;;;;;;;6098822;23;20095;-80
2022/07/14 10:34:37;;;;;;;8.27;1.45;;;;;;;;;;6098890;23;20034;-81
2022/07/14 10:37:23;;;;;;;4.97;1.10;;;;;;;;;;6099376;23;20111;-80
2022/07/14 10:40:08;;;;;;;6.28;1.27;;;;;;;;;;6099289;23;20923;-80
2022/07/14 10:42:42;;;;;;;4.22;1.30;;;;;;;;;;6099538;23;20033;-80
2022/07/14 10:45:11;;;;;;;5.40;1.20;;;;;;;;;;6099584;23;20033;-80
2022/07/14 10:47:42;;;;;;;6.20;1.55;;;;;;;;;;6099076;23;20027;-80
2022/07/14 10:50:12;;;;;;;10.20;1.60;;;;;;;;;;6098952;23;20023;-81
2022/07/14 10:52:49;;;;;;;3.58;1.20;;;;;;;;;;6098744;23;20023;-81
2022/07/14 10:55:18;;;;;;;4.72;1.10;;;;;;;;;;6099223;23;20109;-80
2022/07/14 10:58:00;;;;;;;6.28;1.60;;;;;;;;;;6121328;23;20023;-80
2022/07/14 11:00:41;;;;;;;7.13;1.30;;;;;;;;;;6098528;23;20031;-80
2022/07/14 11:03:18;;;;;;;5.50;1.27;;;;;;;;;;6099519;23;20023;-80
2022/07/14 11:06:05;;;;;;;4.85;1.40;;;;;;;;;;6097923;23;20027;-81
2022/07/14 11:09:08;;;;;;;7.57;1.52;;;;;;;;;;6098294;23;20473;-80
2022/07/14 11:11:35;;;;;;;6.47;1.42;;;;;;;;;;6098889;23;20031;-80
2022/07/14 11:14:02;;;;;;;6.13;1.30;;;;;;;;;;6098403;23;20098;-80
2022/07/14 11:16:49;;;;;;;4.05;1.65;;;;;;;;;;6097841;23;20495;-80
2022/07/14 11:19:24;;;;;;;9.88;1.30;;;;;;;;;;6098650;23;20102;-80
2022/07/14 11:22:10;;;;;;;3.15;1.10;;;;;;;;;;6098711;23;20808;-80
2022/07/14 11:24:56;;;;;;;3.97;1.20;;;;;;;;;;6121204;23;20504;-81
2022/07/14 11:27:27;;;;;;;7.25;1.10;;;;;;;;;;6120661;23;20031;-80
2022/07/14 11:29:58;;;;;;;5.00;1.30;;;;;;;;;;6097348;23;20023;-80
2022/07/14 11:32:29;;;;;;;5.03;1.13;;;;;;;;;;6097901;23;20051;-80
2022/07/14 11:37:59;;;;;;;4.82;1.02;;;;;;;;;;6098253;23;20034;-81
2022/07/14 11:40:46;;;;;;;5.50;1.08;;;;;;;;;;6099112;23;20019;-81
2022/07/14 11:43:36;;;;;;;4.38;0.90;;;;;;;;;;6099327;23;20027;-80
2022/07/14 11:46:03;;;;;;;4.45;1.08;;;;;;;;;;6098661;23;20023;-81
2022/07/14 11:48:32;;;;;;;4.45;1.13;;;;;;;;;;6120052;23;20374;-80
2022/07/14 11:51:06;;;;;;;3.47;0.80;;;;;;;;;;6097484;23;20019;-80
2022/07/14 11:53:34;;;;;;;4.18;1.15;;;;;;;;;;6120460;23;20098;-80
2022/07/14 11:56:01;;;;;;;4.70;1.08;;;;;;;;;;6097171;23;20058;-80
2022/07/14 11:58:32;;;;;;;3.63;1.00;;;;;;;;;;6098670;23;20079;-81
2022/07/14 12:01:00;;;;;;;4.25;1.00;;;;;;;;;;6099050;23;20019;-80
2022/07/14 12:03:32;;;;;;;3.20;0.93;;;;;;;;;;6099593;23;20027;-80
2022/07/14 12:06:00;;;;;;;4.78;1.02;;;;;;;;;;6098436;23;20030;-79
2022/07/14 12:08:37;;;;;;;3.92;1.17;;;;;;;;;;6098526;23;20090;-80
2022/07/14 12:11:08;;;;;;;3.65;1.10;;;;;;;;;;6100235;23;20032;-80
2022/07/14 12:13:51;;;;;;;2.97;1.00;;;;;;;;;;6126842;23;20035;-81
2022/07/14 12:16:18;;;;;;;7.10;1.17;;;;;;;;;;6106688;23;20947;-80
2022/07/14 12:18:46;;;;;;;4.45;1.00;;;;;;;;;;6102647;23;20106;-80
2022/07/14 12:21:14;;;;;;;5.70;1.35;;;;;;;;;;6126770;23;20903;-80
2022/07/14 12:23:56;;;;;;;3.17;1.00;;;;;;;;;;6123690;23;20027;-80
2022/07/14 12:26:25;;;;;;;9.02;1.30;;;;;;;;;;6105736;23;20015;-80
2022/07/14 12:28:54;;;;;;;5.20;1.17;;;;;;;;;;6103567;23;20023;-80
2022/07/14 12:31:22;;;;;;;5.45;1.13;;;;;;;;;;6125960;23;20864;-80
2022/07/14 12:33:54;;;;;;;5.68;1.02;;;;;;;;;;6099610;23;20856;-80
2022/07/14 12:36:23;;;;;;;3.28;0.98;;;;;;;;;;6124976;23;20030;-80
2022/07/14 12:38:51;;;;;;;8.80;1.48;;;;;;;;;;6098449;23;20787;-80
2022/07/14 12:41:25;;;;;;;5.93;1.10;;;;;;;;;;6126577;23;20034;-80
2022/07/14 12:43:53;;;;;;;4.40;1.30;;;;;;;;;;6102434;23;20039;-81
2022/07/14 12:46:23;;;;;;;5.85;1.10;;;;;;;;;;6101457;23;20117;-80
2022/07/14 12:48:51;;;;;;;6.57;1.20;;;;;;;;;;6102956;23;20049;-79
2022/07/14 12:51:29;;;;;;;7.43;1.25;;;;;;;;;;6101007;23;20499;-86
2022/07/14 12:54:02;;;;;;;4.30;1.27;;;;;;;;;;6099964;23;20087;-80
2022/07/14 12:56:31;;;;;;;4.28;1.20;;;;;;;;;;6099470;23;20027;-80
2022/07/14 12:59:02;;;;;;;7.72;1.30;;;;;;;;;;6123784;23;20029;-81
2022/07/14 13:01:30;;;;;;;5.50;1.20;;;;;;;;;;6100301;23;20022;-80
2022/07/14 13:04:01;;;;;;;7.60;1.25;;;;;;;;;;6099838;23;20751;-80
2022/07/14 13:06:41;;;;;;;6.03;1.33;;;;;;;;;;6101218;23;20023;-82
2022/07/14 13:09:16;;;;;;;3.85;1.40;;;;;;;;;;6101092;23;20114;-80
2022/07/14 13:11:45;;;;;;;9.73;1.00;;;;;;;;;;6099811;23;20861;-82
2022/07/14 13:14:12;;;;;;;3.78;1.27;;;;;;;;;;6100601;23;20023;-80
2022/07/14 13:16:46;;;;;;;6.55;1.42;;;;;;;;;;6096680;23;20050;-82
2022/07/14 13:19:23;;;;;;;6.30;1.42;;;;;;;;;;6100719;23;20023;-82
2022/07/14 13:21:50;;;;;;;10.65;1.52;;;;;;;;;;6101146;23;20015;-80
2022/07/14 13:24:19;;;;;;;6.07;1.20;;;;;;;;;;6124413;23;20103;-80
2022/07/14 13:27:02;;;;;;;7.10;1.48;;;;;;;;;;6101606;23;20102;-81
2022/07/14 13:29:31;;;;;;;5.30;1.17;;;;;;;;;;6101866;23;20439;-82
2022/07/14 13:31:58;;;;;;;5.53;1.40;;;;;;;;;;6100080;23;20027;-83
2022/07/14 13:34:26;;;;;;;8.20;1.15;;;;;;;;;;6100803;23;20775;-80
2022/07/14 13:36:56;;;;;;;3.38;1.67;;;;;;;;;;6098930;23;20850;-80
2022/07/14 13:39:28;;;;;;;7.18;1.45;;;;;;;;;;6098570;23;20826;-79
2022/07/14 13:41:56;;;;;;;6.82;1.60;;;;;;;;;;6098787;23;20037;-80
2022/07/14 13:44:24;;;;;;;7.53;1.52;;;;;;;;;;6097106;23;20366;-79
2022/07/14 13:46:51;;;;;;;7.13;1.90;;;;;;;;;;6100793;23;20027;-81
2022/07/14 13:49:19;;;;;;;4.70;1.15;;;;;;;;;;6123882;23;20023;-81
2022/07/14 13:54:44;;;;;;;3.60;1.10;;;;;;;;;;6103061;23;20061;-80
2022/07/14 13:57:11;;;;;;;5.57;1.50;;;;;;;;;;6133622;23;20023;-80
2022/07/14 13:59:43;;;;;;;9.30;1.70;;;;;;;;;;6134189;23;20169;-80
2022/07/14 14:02:13;;;;;;;9.82;1.20;;;;;;;;;;6130921;23;20469;-79
2022/07/14 14:04:46;;;;;;;9.15;1.88;;;;;;;;;;6123479;23;20043;-80
2022/07/14 14:07:25;;;;;;;4.53;1.42;;;;;;;;;;6102035;23;20030;-80
2022/07/14 14:09:54;;;;;;;6.25;1.60;;;;;;;;;;6126069;23;20026;-80
2022/07/14 14:12:21;;;;;;;5.38;1.65;;;;;;;;;;6126071;23;20050;-80
2022/07/14 14:14:50;;;;;;;4.80;1.67;;;;;;;;;;6122841;23;20456;-80
2022/07/14 14:17:19;;;;;;;4.38;1.25;;;;;;;;;;6100485;23;20019;-81
2022/07/14 14:19:52;;;;;;;5.88;1.65;;;;;;;;;;6101672;23;20027;-80
2022/07/14 14:22:22;;;;;;;4.13;1.20;;;;;;;;;;6102118;23;20023;-82
2022/07/14 14:24:50;;;;;;;8.25;1.20;;;;;;;;;;6101565;23;20031;-79
2022/07/14 14:27:17;;;;;;;3.70;1.27;;;;;;;;;;6105421;23;20086;-80
2022/07/14 14:29:44;;;;;;;6.13;1.40;;;;;;;;;;6102395;23;20051;-81
2022/07/14 14:32:11;;;;;;;5.57;1.45;;;;;;;;;;6129094;23;20033;-82
2022/07/14 14:34:48;;;;;;;4.53;1.50;;;;;;;;;;6105970;23;20030;-80
2022/07/14 14:37:17;;;;;;;7.15;1.42;;;;;;;;;;6129161;23;20795;-80
2022/07/14 14:39:44;;;;;;;5.38;1.30;;;;;;;;;;6106881;23;20026;-80
2022/07/14 14:42:12;;;;;;;4.10;1.10;;;;;;;;;;6107453;23;20029;-80
2022/07/14 14:44:41;;;;;;;3.35;0.90;;;;;;;;;;6106620;23;20093;-81
2022/07/14 14:47:08;;;;;;;3.65;0.90;;;;;;;;;;6105845;23;20022;-80
2022/07/14 14:49:53;;;;;;;4.43;1.23;;;;;;;;;;6129726;23;20070;-80
2022/07/14 14:52:25;;;;;;;3.17;0.85;;;;;;;;;;6106306;23;20027;-80
2022/07/14 14:54:53;;;;;;;10.50;1.40;;;;;;;;;;6129482;23;20035;-80
2022/07/14 14:57:24;;;;;;;2.95;1.05;;;;;;;;;;6105807;23;20885;-80
2022/07/14 14:59:51;;;;;;;4.22;1.35;;;;;;;;;;6128597;23;20509;-80
2022/07/14 15:02:27;;;;;;;8.90;1.10;;;;;;;;;;6127700;23;20027;-80
2022/07/14 15:05:00;;;;;;;5.97;1.15;;;;;;;;;;6105248;23;20105;-81
2022/07/14 15:07:28;;;;;;;6.63;1.40;;;;;;;;;;6105491;23;20015;-80
2022/07/14 15:09:56;;;;;;;6.05;1.38;;;;;;;;;;6105707;23;20026;-80